Time;durP1;ratioP1;P1;durP2;ratioP2;P2;SDS_P1;SDS_P2;PMS_P1;PMS_P2;Temp;Humidity;BMP_temperature;BMP_pressure;BME280_temperature;BME280_humidity;BME280_pressure;Samples;Min_cycle;Max_cycle;Signal;HPM_P1;HPM_P2
2022/08/12 03:15:14;;;;;;;14.90;14.10;;;16.70;99.90;;;;;;5008381;23;20494;-68
2022/08/12 03:17:50;;;;;;;15.83;14.73;;;16.80;99.90;;;;;;4916335;29;20458;-68
2022/08/12 03:20:20;;;;;;;15.50;14.70;;;16.60;99.90;;;;;;4916511;29;20482;-68
2022/08/12 03:22:48;;;;;;;14.80;13.90;;;16.50;99.90;;;;;;4916378;29;20458;-68
2022/08/12 03:25:23;;;;;;;17.57;16.47;;;16.40;99.90;;;;;;4916147;29;20458;-67
2022/08/12 03:27:54;;;;;;;16.90;15.70;;;16.40;99.90;;;;;;4916368;29;20470;-67
2022/08/12 03:30:24;;;;;;;16.40;15.50;;;16.30;99.90;;;;;;4914508;29;20513;-66
2022/08/12 03:32:53;;;;;;;16.10;14.87;;;16.40;99.90;;;;;;4915778;29;20459;-66
2022/08/12 03:35:25;;;;;;;17.33;16.13;;;16.40;99.90;;;;;;4915737;29;20836;-66
2022/08/12 03:37:52;;;;;;;17.13;16.10;;;16.40;99.90;;;;;;4914863;29;20478;-66
2022/08/12 04:02:27;;;;;;;14.97;14.07;;;16.30;99.90;;;;;;4915702;29;20433;-60
2022/08/12 04:04:54;;;;;;;15.73;14.73;;;16.20;99.90;;;;;;4914666;29;20557;-60
2022/08/12 04:07:20;;;;;;;15.13;14.13;;;16.20;99.90;;;;;;4915766;29;20462;-60
2022/08/12 04:09:47;;;;;;;15.87;14.60;;;16.20;99.90;;;;;;4915795;29;20478;-62
2022/08/12 04:15:00;;;;;;;16.10;14.90;;;16.30;99.90;;;;;;4915280;29;20530;-61
2022/08/12 04:17:29;;;;;;;16.30;14.80;;;16.20;99.90;;;;;;4915417;29;20457;-62
2022/08/12 04:19:57;;;;;;;16.40;15.10;;;16.20;99.90;;;;;;4915344;29;20646;-61
2022/08/12 04:22:27;;;;;;;15.40;14.27;;;16.20;99.90;;;;;;4915485;29;20490;-61
2022/08/12 04:24:54;;;;;;;16.40;15.23;;;16.20;99.90;;;;;;4915179;29;20450;-60
2022/08/12 04:27:21;;;;;;;16.50;15.00;;;16.30;99.90;;;;;;4915556;29;20461;-60
2022/08/12 04:29:47;;;;;;;16.03;14.70;;;16.40;99.90;;;;;;4915558;29;20453;-61
2022/08/12 04:32:14;;;;;;;16.93;15.70;;;16.40;99.90;;;;;;4915225;29;20465;-61
2022/08/12 04:34:43;;;;;;;17.90;16.30;;;16.30;99.90;;;;;;4914967;29;20949;-62
2022/08/12 04:37:11;;;;;;;15.10;14.10;;;16.40;99.90;;;;;;4914898;29;20991;-62
2022/08/12 04:39:39;;;;;;;15.73;14.57;;;16.40;99.90;;;;;;4914943;29;20831;-61
2022/08/12 04:42:06;;;;;;;15.27;14.47;;;16.40;99.90;;;;;;4915119;29;20458;-61
2022/08/12 04:44:33;;;;;;;16.33;14.87;;;16.40;99.90;;;;;;4915201;29;20475;-61
2022/08/12 04:46:59;;;;;;;14.70;13.97;;;16.40;99.90;;;;;;4914911;29;20497;-61
2022/08/12 04:49:27;;;;;;;16.50;15.17;;;16.40;99.90;;;;;;4914677;29;20984;-62
2022/08/12 04:51:58;;;;;;;16.03;15.03;;;16.40;99.90;;;;;;4914720;29;20470;-62
2022/08/12 04:54:25;;;;;;;15.60;14.50;;;16.40;99.90;;;;;;4914749;29;20526;-61
2022/08/12 04:56:52;;;;;;;14.73;13.73;;;16.50;99.90;;;;;;4914824;29;20945;-62
2022/08/12 04:59:19;;;;;;;15.47;14.57;;;16.50;99.90;;;;;;4914914;29;20458;-61
2022/08/12 05:01:50;;;;;;;15.10;14.20;;;16.50;99.90;;;;;;4914693;29;20505;-60
2022/08/12 05:04:18;;;;;;;15.33;14.17;;;16.70;99.90;;;;;;4914683;29;20948;-61
2022/08/12 05:06:46;;;;;;;17.00;15.60;;;17.20;99.90;;;;;;4914562;29;20465;-61
2022/08/12 05:09:15;;;;;;;16.83;15.50;;;17.70;99.90;;;;;;4914381;29;20514;-62
2022/08/12 05:11:42;;;;;;;16.17;14.73;;;18.30;99.90;;;;;;4914509;29;20446;-62
2022/08/12 05:14:10;;;;;;;15.90;14.27;;;18.70;99.90;;;;;;4914169;29;20675;-61
2022/08/12 05:16:38;;;;;;;15.37;14.60;;;19.20;99.90;;;;;;4914097;29;20458;-61
2022/08/12 05:19:05;;;;;;;15.27;14.10;;;19.70;99.30;;;;;;4914641;29;20490;-61
2022/08/12 05:21:32;;;;;;;15.17;14.27;;;20.20;97.90;;;;;;4914219;29;20478;-60
2022/08/12 05:23:59;;;;;;;14.50;13.90;;;20.70;96.40;;;;;;4914329;29;20894;-61
2022/08/12 05:26:28;;;;;;;15.47;14.10;;;21.10;95.60;;;;;;4914055;29;20644;-62
2022/08/12 05:28:54;;;;;;;15.53;14.20;;;21.40;95.00;;;;;;4914146;29;20909;-63
2022/08/12 05:31:21;;;;;;;15.77;14.80;;;21.80;93.70;;;;;;4914375;29;20450;-62
2022/08/12 05:33:48;;;;;;;14.97;13.77;;;22.10;92.80;;;;;;4914347;29;20462;-63
2022/08/12 05:36:18;;;;;;;16.77;15.40;;;22.40;92.30;;;;;;4914170;29;20454;-63
2022/08/12 05:38:59;;;;;;;16.73;15.27;;;22.60;91.50;;;;;;4914183;29;20462;-61
2022/08/12 05:41:29;;;;;;;15.53;14.73;;;22.90;90.50;;;;;;4913862;29;20505;-62
2022/08/12 05:43:58;;;;;;;15.93;15.03;;;23.00;89.40;;;;;;4914086;29;20462;-62
2022/08/12 05:46:26;;;;;;;17.07;15.97;;;23.30;88.80;;;;;;4914047;29;20446;-64
2022/08/12 05:48:54;;;;;;;16.20;15.17;;;23.80;86.70;;;;;;4914107;29;20462;-66
2022/08/12 05:51:23;;;;;;;16.67;15.53;;;23.80;85.90;;;;;;4913961;29;20513;-70
2022/08/12 05:53:51;;;;;;;15.67;14.77;;;24.20;83.80;;;;;;4913996;29;20466;-69
2022/08/12 05:56:23;;;;;;;14.87;14.07;;;24.40;81.10;;;;;;4912707;29;20461;-69
2022/08/12 05:58:52;;;;;;;15.07;14.27;;;24.50;80.40;;;;;;4912346;29;20462;-68
2022/08/12 06:01:19;;;;;;;14.80;14.00;;;24.80;79.00;;;;;;4913106;29;20485;-69
2022/08/12 06:03:45;;;;;;;15.10;14.20;;;25.00;78.40;;;;;;4907665;29;20469;-69
2022/08/12 06:06:14;;;;;;;15.37;14.47;;;25.10;76.60;;;;;;4914176;29;20459;-69
2022/08/12 06:08:43;;;;;;;15.83;14.90;;;25.30;75.10;;;;;;4913326;29;20457;-68
2022/08/12 06:11:10;;;;;;;14.53;13.73;;;25.60;73.60;;;;;;4911659;29;20447;-69
2022/08/12 06:13:37;;;;;;;15.60;14.37;;;25.60;72.80;;;;;;4913340;29;20482;-69
2022/08/12 06:16:07;;;;;;;15.20;14.20;;;25.40;72.90;;;;;;4914097;29;20850;-69
2022/08/12 06:18:33;;;;;;;15.57;14.40;;;25.60;72.60;;;;;;4913925;29;20482;-68
2022/08/12 06:21:00;;;;;;;14.13;13.33;;;26.00;70.80;;;;;;4913305;29;20498;-68
2022/08/12 06:23:27;;;;;;;15.77;14.33;;;25.90;70.00;;;;;;4913393;29;20644;-68
2022/08/12 06:25:55;;;;;;;15.97;14.87;;;26.40;69.30;;;;;;4913574;29;20462;-69
2022/08/12 06:28:21;;;;;;;15.10;14.27;;;26.70;67.60;;;;;;4914996;29;20493;-69
2022/08/12 06:30:49;;;;;;;14.47;13.83;;;27.10;65.20;;;;;;4917565;29;20930;-70
2022/08/12 06:33:18;;;;;;;15.80;14.50;;;27.20;64.70;;;;;;4917054;29;20450;-68
2022/08/12 06:35:45;;;;;;;17.57;16.37;;;27.60;64.00;;;;;;4916790;29;20489;-69
2022/08/12 06:38:16;;;;;;;17.63;16.30;;;27.80;62.60;;;;;;4916937;29;20450;-70
2022/08/12 06:43:28;;;;;;;16.60;15.70;;;28.10;61.40;;;;;;4916998;29;20442;-70
2022/08/12 06:45:57;;;;;;;15.40;14.80;;;28.50;60.10;;;;;;4916912;29;20458;-70
2022/08/12 06:48:26;;;;;;;16.10;15.20;;;28.40;59.80;;;;;;4919101;29;20453;-70
2022/08/12 06:50:53;;;;;;;15.17;14.27;;;28.70;58.70;;;;;;4924900;29;20550;-69
2022/08/12 06:53:20;;;;;;;15.87;14.97;;;28.80;58.30;;;;;;4923985;29;20489;-70
2022/08/12 06:55:47;;;;;;;14.97;14.10;;;28.90;58.50;;;;;;4925704;29;20521;-70
2022/08/12 06:58:15;;;;;;;15.50;14.47;;;29.20;57.30;;;;;;4925242;29;20469;-69
2022/08/12 07:00:45;;;;;;;16.07;15.37;;;29.50;57.30;;;;;;4923613;29;20858;-69
2022/08/12 07:03:21;;;;;;;15.50;14.77;;;29.80;55.70;;;;;;4924516;29;20450;-68
2022/08/12 07:05:49;;;;;;;16.43;15.33;;;29.60;55.80;;;;;;4921727;29;21011;-69
2022/08/12 07:08:16;;;;;;;15.40;14.70;;;29.80;55.40;;;;;;4923773;29;20450;-70
2022/08/12 07:10:44;;;;;;;16.07;15.37;;;29.80;54.90;;;;;;4925154;29;20446;-69
2022/08/12 07:13:11;;;;;;;14.80;13.93;;;30.30;54.20;;;;;;4923556;29;20466;-70
2022/08/12 07:15:39;;;;;;;15.87;15.07;;;30.40;53.10;;;;;;4923279;29;20453;-69
2022/08/12 07:18:14;;;;;;;14.87;14.17;;;30.70;52.20;;;;;;4920976;29;20450;-70
2022/08/12 07:20:42;;;;;;;15.57;14.67;;;31.30;51.00;;;;;;4918557;29;20481;-70
2022/08/12 07:23:11;;;;;;;15.70;15.00;;;31.50;50.20;;;;;;4915929;29;20458;-69
2022/08/12 07:25:38;;;;;;;15.97;15.00;;;31.30;50.40;;;;;;4915802;29;20474;-69
2022/08/12 07:28:07;;;;;;;17.37;16.07;;;31.70;50.20;;;;;;4914233;29;20462;-69
2022/08/12 07:30:36;;;;;;;15.13;14.13;;;32.40;48.50;;;;;;4915881;29;20462;-70
2022/08/12 07:33:04;;;;;;;15.10;14.40;;;32.80;47.00;;;;;;4915661;29;20457;-69
2022/08/12 07:35:32;;;;;;;16.17;14.50;;;32.60;47.00;;;;;;4915644;29;20967;-69
2022/08/12 07:38:00;;;;;;;16.30;15.23;;;33.10;45.70;;;;;;4915609;29;20474;-69
2022/08/12 07:40:29;;;;;;;16.37;15.57;;;33.30;44.70;;;;;;4915408;29;20462;-69
2022/08/12 07:42:56;;;;;;;15.83;15.07;;;33.20;44.50;;;;;;4915913;29;21139;-69
2022/08/12 07:45:23;;;;;;;15.83;14.83;;;32.90;44.90;;;;;;4915694;29;20941;-70
2022/08/12 07:47:51;;;;;;;16.73;15.80;;;33.20;44.60;;;;;;4915883;29;20458;-69
2022/08/12 07:50:19;;;;;;;17.30;16.30;;;33.70;43.70;;;;;;4915485;29;20454;-70
2022/08/12 07:52:47;;;;;;;17.73;16.60;;;33.80;43.30;;;;;;4915487;29;20447;-69
2022/08/12 07:55:15;;;;;;;16.80;15.80;;;33.50;42.20;;;;;;4915424;29;21027;-69
2022/08/12 07:57:52;;;;;;;17.30;16.50;;;34.10;41.50;;;;;;4915217;29;20490;-71
2022/08/12 08:00:20;;;;;;;18.17;17.47;;;34.30;41.30;;;;;;4915641;29;20458;-71
2022/08/12 08:02:48;;;;;;;16.67;15.80;;;34.50;40.60;;;;;;4915347;29;20470;-71
2022/08/12 08:05:15;;;;;;;18.83;17.83;;;34.40;40.60;;;;;;4915123;29;20498;-70
2022/08/12 08:07:42;;;;;;;16.10;15.33;;;34.50;39.20;;;;;;4915144;29;20553;-70
2022/08/12 08:10:10;;;;;;;15.20;14.30;;;34.10;39.50;;;;;;4915056;29;20462;-70
2022/08/12 08:12:57;;;;;;;15.53;14.83;;;33.90;39.50;;;;;;4914868;29;20479;-70
2022/08/12 08:15:27;;;;;;;15.47;14.87;;;33.20;40.40;;;;;;4914525;29;20485;-71
2022/08/12 08:18:01;;;;;;;15.30;14.50;;;32.90;41.80;;;;;;4915040;29;20458;-69
2022/08/12 08:20:32;;;;;;;15.70;15.10;;;33.00;41.60;;;;;;4914906;29;20674;-70
2022/08/12 08:23:04;;;;;;;16.50;15.80;;;32.90;41.70;;;;;;4915017;29;20521;-70
2022/08/12 08:25:31;;;;;;;15.80;15.00;;;33.50;41.70;;;;;;4915069;29;20562;-70
2022/08/12 08:28:00;;;;;;;15.80;15.10;;;33.60;40.30;;;;;;4914752;29;20447;-70
2022/08/12 08:30:29;;;;;;;15.63;15.03;;;34.00;40.50;;;;;;4914857;29;20462;-71
2022/08/12 08:32:56;;;;;;;16.00;15.10;;;34.00;39.10;;;;;;4914513;29;20858;-71
2022/08/12 08:35:24;;;;;;;16.30;15.23;;;34.40;37.90;;;;;;4914880;29;20447;-71
2022/08/12 08:37:51;;;;;;;16.30;15.70;;;34.50;37.50;;;;;;4914940;29;20458;-70
2022/08/12 08:43:03;;;;;;;15.70;15.07;;;33.50;39.70;;;;;;4914779;29;20498;-71
2022/08/12 08:45:31;;;;;;;15.70;15.00;;;32.90;39.40;;;;;;4914428;29;20478;-71
2022/08/12 08:47:59;;;;;;;15.10;14.60;;;32.60;39.70;;;;;;4914542;29;20466;-70
2022/08/12 08:50:26;;;;;;;16.63;15.93;;;32.50;39.40;;;;;;4913935;29;20549;-70
2022/08/12 08:52:54;;;;;;;15.77;15.10;;;32.90;39.60;;;;;;4914171;29;20453;-70
2022/08/12 08:55:21;;;;;;;16.27;15.47;;;32.70;40.10;;;;;;4914564;29;20466;-71
2022/08/12 08:57:51;;;;;;;16.07;15.47;;;33.00;39.60;;;;;;4914574;29;20461;-71
2022/08/12 09:00:19;;;;;;;15.93;15.30;;;33.20;38.60;;;;;;4914534;29;20446;-71
2022/08/12 09:02:48;;;;;;;15.63;14.93;;;32.60;38.40;;;;;;4913871;29;20848;-71
2022/08/12 09:05:16;;;;;;;15.77;14.90;;;31.50;39.50;;;;;;4913985;29;20455;-70
2022/08/12 09:07:45;;;;;;;14.63;14.13;;;30.90;40.10;;;;;;4913885;29;20924;-69
2022/08/12 09:10:13;;;;;;;15.47;14.80;;;30.90;40.10;;;;;;4913923;29;20462;-70
2022/08/12 09:15:24;;;;;;;15.70;15.00;;;30.90;40.70;;;;;;4913762;29;20525;-70
2022/08/12 09:17:54;;;;;;;15.23;14.43;;;30.20;41.80;;;;;;4913930;29;20458;-70
2022/08/12 09:20:23;;;;;;;14.70;14.10;;;30.50;42.20;;;;;;4913788;29;20465;-71
2022/08/12 09:22:50;;;;;;;15.97;15.17;;;31.50;40.80;;;;;;4914248;29;20490;-71
2022/08/12 09:25:17;;;;;;;15.60;14.93;;;31.50;39.60;;;;;;4913881;29;20454;-70
2022/08/12 09:27:45;;;;;;;15.90;15.20;;;31.80;38.80;;;;;;4911855;29;20494;-70
2022/08/12 09:30:14;;;;;;;15.10;14.60;;;31.50;38.50;;;;;;4913207;29;20757;-71
2022/08/12 09:32:42;;;;;;;14.30;13.80;;;31.10;39.50;;;;;;4912345;29;20738;-71
2022/08/12 09:35:11;;;;;;;15.70;14.80;;;31.60;39.50;;;;;;4913684;29;20454;-71
2022/08/12 09:37:37;;;;;;;15.17;14.47;;;32.20;38.30;;;;;;4913844;29;20455;-71
2022/08/12 09:40:05;;;;;;;15.60;14.90;;;32.70;37.00;;;;;;4913929;29;20470;-70
2022/08/12 09:45:22;;;;;;;14.53;13.90;;;32.10;37.90;;;;;;4913895;29;20429;-71
2022/08/12 09:47:49;;;;;;;14.87;14.00;;;32.00;37.90;;;;;;4914035;29;20967;-71
2022/08/12 09:50:18;;;;;;;15.60;14.90;;;31.90;38.40;;;;;;4913710;29;20465;-71
2022/08/12 09:52:51;;;;;;;15.10;14.30;;;31.50;38.30;;;;;;4913439;29;20957;-71
2022/08/12 09:55:18;;;;;;;15.73;15.03;;;31.60;38.60;;;;;;4913517;29;20462;-70
2022/08/12 09:57:44;;;;;;;16.03;15.30;;;31.80;38.80;;;;;;4913736;29;20459;-70
2022/08/12 10:00:12;;;;;;;14.60;14.10;;;32.30;38.10;;;;;;4913939;29;20465;-70
2022/08/12 10:02:38;;;;;;;16.40;15.53;;;32.70;37.70;;;;;;4911791;29;20504;-71
2022/08/12 10:05:08;;;;;;;17.13;16.30;;;33.20;37.40;;;;;;4917677;29;20461;-71
2022/08/12 10:07:37;;;;;;;15.57;14.97;;;33.90;36.00;;;;;;4917655;29;20463;-71
2022/08/12 10:10:04;;;;;;;15.70;15.03;;;33.80;35.90;;;;;;4917629;29;20462;-71
2022/08/12 10:15:16;;;;;;;16.00;15.30;;;32.90;37.40;;;;;;4917413;29;20825;-71
2022/08/12 10:17:43;;;;;;;15.83;15.23;;;32.60;37.40;;;;;;4917194;29;20557;-71
2022/08/12 10:20:11;;;;;;;15.60;14.90;;;31.90;38.50;;;;;;4917144;29;20455;-71
2022/08/12 10:22:40;;;;;;;15.77;14.90;;;31.50;39.40;;;;;;4917039;29;20501;-69
2022/08/12 10:30:35;;;;;;;15.60;14.90;;;32.60;38.70;;;;;;4917421;29;20480;-70
2022/08/12 10:33:03;;;;;;;15.13;14.47;;;33.10;37.60;;;;;;4917232;29;20454;-70
2022/08/12 10:35:31;;;;;;;15.60;15.00;;;32.90;37.10;;;;;;4917047;29;20522;-71
2022/08/12 10:38:01;;;;;;;16.27;15.47;;;31.60;38.90;;;;;;4917014;29;20469;-70
2022/08/12 10:40:29;;;;;;;14.73;14.23;;;31.30;39.30;;;;;;4917038;29;20482;-71
2022/08/12 10:45:41;;;;;;;15.70;15.10;;;32.30;38.10;;;;;;4916897;29;20434;-70
2022/08/12 10:48:08;;;;;;;17.17;16.23;;;32.90;37.60;;;;;;4916861;29;20472;-70
2022/08/12 10:50:35;;;;;;;16.33;15.50;;;33.10;37.20;;;;;;4917134;29;20453;-71
2022/08/12 10:53:05;;;;;;;15.33;14.70;;;33.60;36.50;;;;;;4916829;29;20454;-71
2022/08/12 10:55:32;;;;;;;16.73;15.57;;;34.20;35.70;;;;;;4916915;29;20980;-71
2022/08/12 10:58:00;;;;;;;15.50;14.90;;;33.90;35.00;;;;;;4916627;29;20454;-71
2022/08/12 11:00:26;;;;;;;15.40;14.90;;;33.60;35.20;;;;;;4916690;29;20481;-71
2022/08/12 11:02:53;;;;;;;15.70;15.00;;;33.30;35.30;;;;;;4916464;29;20532;-71
2022/08/12 11:05:20;;;;;;;15.23;14.63;;;32.80;35.30;;;;;;4916718;29;20454;-71
2022/08/12 11:07:49;;;;;;;15.27;14.30;;;32.80;35.80;;;;;;4916767;29;20459;-71
2022/08/12 11:10:18;;;;;;;15.10;14.50;;;33.50;35.30;;;;;;4916684;29;20459;-71
2022/08/12 11:12:46;;;;;;;15.47;14.80;;;34.50;34.20;;;;;;4916307;29;20477;-71
2022/08/12 11:15:13;;;;;;;16.20;15.60;;;34.20;33.50;;;;;;4915724;29;20490;-71
2022/08/12 11:17:40;;;;;;;15.03;14.43;;;33.50;34.20;;;;;;4916074;29;20458;-71
2022/08/12 11:20:08;;;;;;;15.20;14.47;;;33.20;34.80;;;;;;4916475;29;20625;-72
2022/08/12 11:22:36;;;;;;;15.23;14.73;;;32.70;35.80;;;;;;4916432;29;20494;-72
2022/08/12 11:25:02;;;;;;;15.97;15.27;;;33.20;35.10;;;;;;4916328;29;20461;-71
2022/08/12 11:27:31;;;;;;;16.07;15.37;;;33.20;35.20;;;;;;4916116;29;20485;-71
2022/08/12 11:29:57;;;;;;;15.67;15.10;;;33.80;34.50;;;;;;4915841;29;20941;-72
2022/08/12 11:32:24;;;;;;;16.03;15.43;;;34.30;33.90;;;;;;4916032;29;20450;-70
2022/08/12 11:34:51;;;;;;;14.90;14.10;;;33.80;33.90;;;;;;4916248;29;20477;-71
2022/08/12 11:37:17;;;;;;;15.13;14.30;;;32.80;34.70;;;;;;4916209;29;20462;-71
2022/08/12 11:39:45;;;;;;;15.13;14.43;;;31.30;36.60;;;;;;4915946;29;20454;-71
2022/08/12 11:42:11;;;;;;;15.33;14.63;;;31.40;36.70;;;;;;4915808;29;20494;-71
2022/08/12 11:44:39;;;;;;;15.63;15.13;;;32.00;36.20;;;;;;4915915;29;20466;-71
2022/08/12 11:47:06;;;;;;;15.33;14.80;;;33.10;35.00;;;;;;4916046;29;20867;-71
2022/08/12 11:49:33;;;;;;;16.53;15.73;;;33.90;34.60;;;;;;4916140;29;20458;-71
2022/08/12 11:52:01;;;;;;;15.07;14.57;;;35.00;32.70;;;;;;4915754;29;20972;-70
2022/08/12 11:54:28;;;;;;;15.77;14.97;;;34.00;32.50;;;;;;4915719;29;20591;-70
2022/08/12 11:56:55;;;;;;;15.47;14.87;;;32.00;34.40;;;;;;4915879;29;21098;-70
2022/08/12 11:59:22;;;;;;;14.40;13.90;;;30.90;35.90;;;;;;4915740;29;20450;-71
2022/08/12 12:01:50;;;;;;;16.10;14.93;;;31.20;36.40;;;;;;4915331;29;20537;-71
2022/08/12 12:04:16;;;;;;;14.73;13.50;;;32.50;35.30;;;;;;4915345;29;20462;-71
2022/08/12 12:06:43;;;;;;;15.63;14.93;;;33.20;33.80;;;;;;4915102;29;20455;-71
2022/08/12 12:09:10;;;;;;;16.10;15.10;;;33.60;33.80;;;;;;4915221;29;20506;-71
2022/08/12 12:11:37;;;;;;;16.57;15.80;;;33.00;34.00;;;;;;4915249;29;20465;-71
2022/08/12 12:14:03;;;;;;;15.23;14.53;;;32.90;33.70;;;;;;4915382;29;20489;-70
2022/08/12 12:16:30;;;;;;;14.57;14.00;;;32.50;33.90;;;;;;4913808;29;20459;-70
2022/08/12 12:18:58;;;;;;;14.27;13.77;;;31.00;34.90;;;;;;4915242;29;20451;-70
2022/08/12 12:21:25;;;;;;;14.53;13.93;;;30.80;35.90;;;;;;4914951;29;21065;-70
2022/08/12 12:23:52;;;;;;;14.90;14.20;;;31.10;35.50;;;;;;4915083;29;20513;-70
2022/08/12 12:26:19;;;;;;;14.77;14.27;;;31.70;34.50;;;;;;4914384;29;20471;-70
2022/08/12 12:28:45;;;;;;;14.83;14.33;;;32.90;33.60;;;;;;4914861;29;20469;-71
2022/08/12 12:31:12;;;;;;;15.10;14.40;;;33.80;32.60;;;;;;4915128;29;20833;-71
2022/08/12 12:33:39;;;;;;;14.80;14.27;;;33.30;32.90;;;;;;4914938;29;20446;-70
2022/08/12 12:36:08;;;;;;;15.50;14.90;;;33.70;32.90;;;;;;4915006;29;20505;-71
2022/08/12 12:38:35;;;;;;;15.10;14.57;;;34.40;32.70;;;;;;4915054;29;20462;-72
2022/08/12 12:41:02;;;;;;;15.37;14.87;;;34.40;32.60;;;;;;4914911;29;20453;-70
2022/08/12 12:43:30;;;;;;;14.30;13.80;;;34.10;33.40;;;;;;4914506;29;21003;-71
2022/08/12 12:45:56;;;;;;;14.83;14.33;;;34.30;32.70;;;;;;4914661;29;20517;-71
2022/08/12 12:48:23;;;;;;;14.90;14.23;;;32.60;34.60;;;;;;4914482;29;20497;-70
2022/08/12 12:51:14;;;;;;;14.53;14.03;;;31.80;35.50;;;;;;4914699;29;20454;-71
2022/08/12 12:53:42;;;;;;;15.83;15.23;;;32.20;35.40;;;;;;4914341;29;20448;-71
2022/08/12 12:56:14;;;;;;;14.90;14.40;;;33.10;34.70;;;;;;4914358;29;20466;-71
2022/08/12 12:58:42;;;;;;;15.43;14.73;;;33.20;34.50;;;;;;4914423;29;20466;-70
2022/08/12 13:01:09;;;;;;;13.93;13.40;;;32.90;34.30;;;;;;4914307;29;21040;-71
2022/08/12 13:03:35;;;;;;;14.43;13.83;;;31.90;35.30;;;;;;4914379;29;20830;-72
2022/08/12 13:06:02;;;;;;;14.63;14.03;;;30.90;37.00;;;;;;4914393;29;20462;-71
2022/08/12 13:08:32;;;;;;;14.57;14.07;;;30.60;37.80;;;;;;4914233;29;20534;-71
2022/08/12 13:11:02;;;;;;;14.83;14.27;;;30.50;37.80;;;;;;4914252;29;20466;-71
2022/08/12 13:13:30;;;;;;;14.70;14.00;;;31.30;37.10;;;;;;4913801;29;20922;-69
2022/08/12 13:16:00;;;;;;;16.10;15.40;;;32.50;35.70;;;;;;4914101;29;20945;-72
2022/08/12 13:18:35;;;;;;;16.27;15.67;;;34.20;34.60;;;;;;4914293;29;21156;-72
2022/08/12 13:21:03;;;;;;;15.97;15.20;;;35.90;32.90;;;;;;4914240;29;20468;-70
2022/08/12 13:23:30;;;;;;;14.90;14.30;;;36.40;31.50;;;;;;4913908;29;20490;-71
2022/08/12 13:25:56;;;;;;;14.63;14.13;;;34.50;32.00;;;;;;4913933;29;20518;-70
2022/08/12 13:28:28;;;;;;;15.77;14.90;;;32.80;34.00;;;;;;4912279;29;20462;-71
2022/08/12 13:30:56;;;;;;;16.00;15.23;;;32.40;35.30;;;;;;4914095;29;20490;-71
2022/08/12 13:33:24;;;;;;;15.50;14.83;;;32.10;35.50;;;;;;4914064;29;20458;-71
2022/08/12 13:35:52;;;;;;;15.33;14.83;;;32.10;35.20;;;;;;4914021;29;20465;-71
2022/08/12 13:38:18;;;;;;;15.40;14.70;;;32.50;35.00;;;;;;4914028;29;20484;-71
2022/08/12 13:40:45;;;;;;;14.60;14.10;;;32.50;34.70;;;;;;4913847;29;20450;-71
2022/08/12 13:43:14;;;;;;;14.27;13.77;;;32.30;35.00;;;;;;4914015;29;20498;-71
2022/08/12 13:45:42;;;;;;;14.23;13.63;;;31.80;35.90;;;;;;4914081;29;20465;-71
2022/08/12 13:48:09;;;;;;;13.80;13.30;;;31.10;35.80;;;;;;4914017;29;20455;-70
2022/08/12 13:50:37;;;;;;;14.87;14.17;;;30.80;36.30;;;;;;4914081;29;20482;-71
2022/08/12 13:53:07;;;;;;;14.90;14.20;;;30.10;37.40;;;;;;4914063;29;20454;-71
2022/08/12 13:55:34;;;;;;;14.53;13.90;;;29.70;38.10;;;;;;4913784;29;20972;-70
2022/08/12 13:58:04;;;;;;;14.90;13.97;;;29.50;38.70;;;;;;4913692;29;20462;-70
2022/08/12 14:00:31;;;;;;;13.30;12.70;;;29.30;38.60;;;;;;4913705;29;20462;-71
2022/08/12 14:02:59;;;;;;;15.47;14.87;;;29.30;39.10;;;;;;4913635;29;20498;-71
2022/08/12 14:05:27;;;;;;;14.73;14.13;;;29.60;38.70;;;;;;4913740;29;20928;-70
2022/08/12 14:07:56;;;;;;;14.63;14.13;;;30.00;38.10;;;;;;4913502;29;20462;-70
2022/08/12 14:10:37;;;;;;;14.73;14.23;;;31.20;36.30;;;;;;4913514;29;20454;-71
2022/08/12 14:13:06;;;;;;;15.30;14.80;;;32.00;35.50;;;;;;4913884;29;20561;-71
2022/08/12 14:15:33;;;;;;;15.63;14.93;;;32.70;34.20;;;;;;4921105;29;20442;-70
2022/08/12 14:18:13;;;;;;;15.60;14.90;;;32.50;34.20;;;;;;4919020;29;20442;-70
2022/08/12 14:20:41;;;;;;;15.10;14.50;;;31.10;35.70;;;;;;4921592;29;20450;-71
2022/08/12 14:23:08;;;;;;;14.70;14.10;;;30.40;37.10;;;;;;4922378;29;20492;-71
2022/08/12 14:25:35;;;;;;;15.73;15.03;;;30.00;37.10;;;;;;4923717;29;20457;-71
2022/08/12 14:28:10;;;;;;;15.67;14.90;;;30.50;37.20;;;;;;4919529;29;20804;-71
2022/08/12 14:30:45;;;;;;;15.87;15.07;;;31.20;36.30;;;;;;4921600;29;20442;-71
2022/08/12 14:33:14;;;;;;;15.03;14.40;;;32.00;35.40;;;;;;4921841;29;20449;-70
2022/08/12 14:35:41;;;;;;;14.47;13.87;;;32.60;34.20;;;;;;4918990;29;20474;-71
2022/08/12 14:38:20;;;;;;;14.87;14.37;;;32.80;34.20;;;;;;4922838;29;20456;-71
2022/08/12 14:40:47;;;;;;;14.97;14.47;;;33.20;33.80;;;;;;4920526;29;20534;-71
2022/08/12 14:43:14;;;;;;;14.80;14.30;;;33.20;33.40;;;;;;4921336;29;20500;-69
2022/08/12 14:45:42;;;;;;;14.47;13.97;;;33.20;33.50;;;;;;4918907;29;20473;-70
2022/08/12 14:48:09;;;;;;;13.90;13.50;;;33.00;33.90;;;;;;4922129;29;20450;-69
2022/08/12 14:50:37;;;;;;;13.43;12.83;;;32.30;33.90;;;;;;4926394;29;20457;-70
2022/08/12 14:53:09;;;;;;;14.53;14.03;;;31.30;33.80;;;;;;4925466;29;20469;-70
2022/08/12 14:55:40;;;;;;;14.73;14.23;;;30.80;34.60;;;;;;4924921;29;20477;-69
2022/08/12 14:58:07;;;;;;;14.53;14.00;;;30.40;35.70;;;;;;4925917;29;20826;-70
2022/08/12 15:03:26;;;;;;;14.90;14.40;;;29.80;36.70;;;;;;4934043;29;20488;-71
2022/08/12 15:05:57;;;;;;;15.43;14.73;;;29.50;37.40;;;;;;4933650;29;20812;-70
2022/08/12 15:08:25;;;;;;;15.23;14.63;;;29.00;38.20;;;;;;4935232;29;20457;-70
2022/08/12 15:10:52;;;;;;;14.40;13.90;;;28.90;38.90;;;;;;4935484;29;20457;-70
2022/08/12 15:13:21;;;;;;;14.37;13.77;;;28.80;38.80;;;;;;4935064;29;20465;-70
2022/08/12 15:15:48;;;;;;;14.07;13.50;;;28.70;38.90;;;;;;4935295;29;20485;-69
2022/08/12 15:18:18;;;;;;;14.10;13.50;;;28.40;39.00;;;;;;4932845;29;20947;-70
2022/08/12 15:20:45;;;;;;;14.80;14.30;;;28.40;39.30;;;;;;4934952;29;20460;-70
2022/08/12 15:23:13;;;;;;;14.50;13.90;;;28.30;38.90;;;;;;4934925;29;20544;-71
2022/08/12 15:25:42;;;;;;;13.93;13.43;;;28.20;39.10;;;;;;4934726;29;21016;-71
2022/08/12 15:28:09;;;;;;;14.37;13.57;;;28.20;39.20;;;;;;4934940;29;20453;-71
2022/08/12 15:30:39;;;;;;;13.60;13.10;;;28.20;39.20;;;;;;4935098;29;20461;-71
2022/08/12 15:33:07;;;;;;;15.13;14.20;;;28.30;39.50;;;;;;4934991;29;20951;-71
2022/08/12 15:35:35;;;;;;;14.83;14.03;;;28.40;39.30;;;;;;4935164;29;20555;-70
2022/08/12 15:38:03;;;;;;;14.83;14.30;;;28.60;39.20;;;;;;4934659;29;20457;-70
2022/08/12 15:40:32;;;;;;;15.13;14.53;;;28.90;38.90;;;;;;4934384;29;20561;-70
2022/08/12 15:43:01;;;;;;;14.30;13.60;;;29.30;38.50;;;;;;4934286;29;20557;-70
2022/08/12 15:45:28;;;;;;;14.43;13.83;;;29.60;38.00;;;;;;4934248;29;20449;-70
2022/08/12 15:47:54;;;;;;;13.47;13.07;;;29.90;37.30;;;;;;4934455;29;20465;-70
2022/08/12 15:50:22;;;;;;;14.80;14.20;;;30.00;37.30;;;;;;4934713;29;20803;-70
2022/08/12 15:52:49;;;;;;;14.13;13.30;;;30.20;37.90;;;;;;4934759;29;20461;-70
2022/08/12 15:55:16;;;;;;;14.50;14.00;;;30.30;37.00;;;;;;4934451;29;20454;-71
2022/08/12 15:57:49;;;;;;;13.53;13.13;;;30.00;37.10;;;;;;4934373;29;20453;-71
2022/08/12 16:00:17;;;;;;;13.57;13.00;;;29.80;37.50;;;;;;4934399;29;21012;-71
2022/08/12 16:02:44;;;;;;;13.70;13.27;;;29.40;37.40;;;;;;4934248;29;20453;-71
2022/08/12 16:05:11;;;;;;;14.20;13.60;;;29.00;37.90;;;;;;4934212;29;20465;-71
2022/08/12 16:07:38;;;;;;;13.90;13.43;;;28.80;38.00;;;;;;4934216;29;20457;-70
2022/08/12 16:10:06;;;;;;;13.83;13.37;;;28.60;38.20;;;;;;4934331;29;20877;-70
2022/08/12 16:12:38;;;;;;;14.37;13.63;;;28.50;38.30;;;;;;4934240;29;20477;-70
2022/08/12 16:15:07;;;;;;;12.50;12.00;;;28.30;38.80;;;;;;4934203;29;20983;-70
2022/08/12 16:17:33;;;;;;;13.97;13.17;;;28.20;39.20;;;;;;4934162;29;20460;-70
2022/08/12 16:20:00;;;;;;;13.40;12.90;;;28.10;39.40;;;;;;4934172;29;20457;-70
2022/08/12 16:22:27;;;;;;;14.23;13.53;;;28.00;39.80;;;;;;4934022;29;20472;-70
2022/08/12 16:24:54;;;;;;;13.10;12.60;;;27.80;39.90;;;;;;4934101;29;20497;-70
2022/08/12 16:27:24;;;;;;;13.83;13.33;;;27.80;40.00;;;;;;4933887;29;20457;-70
2022/08/12 16:29:55;;;;;;;13.73;13.33;;;27.60;40.40;;;;;;4933937;29;20467;-70
2022/08/12 16:32:24;;;;;;;14.00;13.50;;;27.60;40.60;;;;;;4933888;29;20453;-70
2022/08/12 16:34:51;;;;;;;14.80;14.00;;;27.50;40.50;;;;;;4933800;29;20458;-71
2022/08/12 16:37:20;;;;;;;14.00;13.53;;;27.40;41.00;;;;;;4933922;29;20464;-71